createdAt,value
2018-12-01T00:01:15.193Z,57.31
2018-12-01T00:03:42.571Z,58.73
2018-12-01T00:06:10.034Z,58.45
2018-12-01T00:08:38.078Z,59.05
2018-12-01T00:11:05.768Z,57.90
2018-12-01T00:13:33.395Z,58.58
2018-12-01T00:16:00.886Z,57.15
2018-12-01T00:18:28.596Z,57.84
2018-12-01T00:20:55.938Z,56.55
2018-12-01T00:23:23.364Z,56.76
2018-12-01T00:25:51.666Z,57.79
2018-12-01T00:28:19.080Z,56.86
2018-12-01T00:30:46.618Z,58.58
2018-12-01T00:33:14.065Z,58.15
2018-12-01T00:35:41.896Z,59.10
2018-12-01T00:38:09.282Z,58.10
2018-12-01T00:40:36.657Z,58.60
2018-12-01T00:43:04.068Z,58.71
2018-12-01T00:45:31.420Z,58.34
2018-12-01T00:47:58.872Z,59.66
2018-12-01T00:50:26.382Z,59.32
2018-12-01T00:52:53.907Z,59.62
2018-12-01T00:55:21.547Z,59.71
2018-12-01T00:57:49.142Z,59.14
2018-12-01T01:00:24.155Z,59.30
2018-12-01T01:02:54.401Z,59.74
2018-12-01T01:05:22.990Z,59.73
2018-12-01T01:07:50.465Z,59.03
2018-12-01T01:10:18.467Z,59.43
2018-12-01T01:12:46.261Z,59.00
2018-12-01T01:15:14.479Z,58.28
2018-12-01T01:17:42.043Z,59.36
2018-12-01T01:20:12.716Z,58.94
2018-12-01T01:22:40.821Z,59.09
2018-12-01T01:25:08.905Z,59.38
2018-12-01T01:27:36.467Z,58.24
2018-12-01T01:30:11.281Z,58.65
2018-12-01T01:32:38.720Z,59.61
2018-12-01T01:35:06.559Z,60.12
2018-12-01T01:37:33.922Z,58.87
2018-12-01T01:40:01.313Z,59.31
2018-12-01T01:42:28.708Z,58.09
2018-12-01T01:44:56.023Z,59.48
2018-12-01T01:47:23.528Z,59.35
2018-12-01T01:49:50.992Z,58.03
2018-12-01T01:52:18.314Z,58.47
2018-12-01T01:54:45.822Z,59.42
2018-12-01T01:57:13.642Z,58.94
2018-12-01T01:59:41.170Z,58.98
2018-12-01T02:02:08.689Z,59.29
2018-12-01T02:04:36.290Z,58.95
2018-12-01T02:07:04.039Z,59.32
2018-12-01T02:09:31.505Z,59.02
2018-12-01T02:11:58.947Z,58.58
2018-12-01T02:14:26.328Z,59.21
2018-12-01T02:16:53.727Z,58.51
2018-12-01T02:19:21.190Z,58.64
2018-12-01T02:21:48.559Z,59.28
2018-12-01T02:24:16.017Z,58.24
2018-12-01T02:26:43.491Z,58.45
2018-12-01T02:29:10.834Z,57.36
2018-12-01T02:31:38.279Z,58.92
2018-12-01T02:34:05.773Z,58.25
2018-12-01T02:36:33.210Z,57.39
2018-12-01T02:39:00.579Z,57.17
2018-12-01T02:41:27.986Z,58.24
2018-12-01T02:44:06.874Z,58.06
2018-12-01T02:46:45.704Z,58.63
2018-12-01T02:49:13.090Z,58.16
2018-12-01T02:51:40.680Z,58.07
2018-12-01T02:54:08.163Z,58.42
2018-12-01T02:56:35.714Z,58.65
2018-12-01T02:59:03.161Z,58.95
2018-12-01T03:01:30.508Z,59.37
2018-12-01T03:03:57.972Z,59.82
2018-12-01T03:06:28.238Z,59.65
2018-12-01T03:08:55.752Z,59.02
2018-12-01T03:11:23.096Z,58.49
2018-12-01T03:13:50.423Z,57.86
2018-12-01T03:16:17.836Z,59.10
2018-12-01T03:18:46.267Z,59.65
2018-12-01T03:21:13.651Z,58.70
2018-12-01T03:23:41.727Z,58.31
2018-12-01T03:26:09.037Z,58.73
2018-12-01T03:28:36.585Z,60.20
2018-12-01T03:31:04.014Z,59.75
2018-12-01T03:33:31.377Z,58.82
2018-12-01T03:35:58.883Z,58.39
2018-12-01T03:38:26.255Z,58.14
2018-12-01T03:40:53.610Z,59.59
2018-12-01T03:43:20.974Z,58.65
2018-12-01T03:45:48.522Z,58.39
2018-12-01T03:48:15.947Z,57.09
2018-12-01T03:50:43.452Z,57.20
2018-12-01T03:53:11.715Z,57.11
2018-12-01T03:55:39.167Z,58.01
2018-12-01T03:58:06.676Z,57.81
2018-12-01T04:00:34.860Z,57.46
2018-12-01T04:03:03.835Z,58.34
2018-12-01T04:05:31.565Z,58.66
2018-12-01T04:07:59.053Z,57.51
2018-12-01T04:10:26.467Z,57.63
2018-12-01T04:12:54.400Z,57.92
2018-12-01T04:15:21.791Z,58.53
2018-12-01T04:17:49.185Z,58.48
2018-12-01T04:20:16.534Z,57.26
2018-12-01T04:22:44.051Z,57.53
2018-12-01T04:25:11.591Z,59.27
2018-12-01T04:27:39.038Z,58.65
2018-12-01T04:30:15.637Z,57.83
2018-12-01T04:32:42.994Z,57.59
2018-12-01T04:35:15.168Z,57.53
2018-12-01T04:37:42.869Z,57.43
2018-12-01T04:40:10.320Z,56.12
2018-12-01T04:42:37.682Z,56.83
2018-12-01T04:45:06.354Z,56.17
2018-12-01T04:47:33.698Z,57.06
2018-12-01T04:50:01.032Z,57.11
2018-12-01T04:52:28.544Z,56.94
2018-12-01T04:54:56.000Z,57.47
2018-12-01T04:57:23.498Z,56.92
2018-12-01T04:59:50.912Z,56.50
2018-12-01T05:02:18.308Z,57.00
2018-12-01T05:04:45.986Z,57.60
2018-12-01T05:07:13.452Z,57.61
2018-12-01T05:09:40.786Z,58.79
2018-12-01T05:12:08.145Z,58.21
2018-12-01T05:14:35.514Z,57.33
2018-12-01T05:17:04.663Z,56.53
2018-12-01T05:19:32.085Z,57.16
2018-12-01T05:21:59.572Z,56.72
2018-12-01T05:24:27.006Z,57.14
2018-12-01T05:26:54.379Z,56.92
2018-12-01T05:29:21.867Z,56.53
2018-12-01T05:31:49.247Z,57.23
2018-12-01T05:34:16.767Z,57.59
2018-12-01T05:36:44.116Z,57.41
2018-12-01T05:39:11.591Z,57.18
2018-12-01T05:41:39.039Z,56.49
2018-12-01T05:44:06.379Z,56.79
2018-12-01T05:46:33.841Z,57.81
2018-12-01T05:49:01.233Z,57.24
2018-12-01T05:51:28.555Z,57.04
2018-12-01T05:53:55.931Z,57.85
2018-12-01T05:56:23.293Z,58.26
2018-12-01T05:58:50.685Z,57.26
2018-12-01T06:01:18.105Z,57.06
2018-12-01T06:03:45.718Z,56.50
2018-12-01T06:06:13.704Z,57.01
2018-12-01T06:08:41.090Z,56.87
2018-12-01T06:11:09.406Z,58.42
2018-12-01T06:13:36.805Z,57.07
2018-12-01T06:16:04.144Z,58.81
2018-12-01T06:18:31.472Z,58.17
2018-12-01T06:20:58.848Z,57.05
2018-12-01T06:23:26.160Z,57.81
2018-12-01T06:25:53.549Z,59.06
2018-12-01T06:28:20.873Z,58.63
2018-12-01T06:30:48.268Z,57.47
2018-12-01T06:33:15.611Z,57.50
2018-12-01T06:35:43.038Z,56.72
2018-12-01T06:38:10.436Z,56.82
2018-12-01T06:40:37.782Z,57.47
2018-12-01T06:43:05.641Z,56.54
2018-12-01T06:45:33.078Z,55.94
2018-12-01T06:48:00.531Z,57.60
2018-12-01T06:50:27.883Z,56.72
2018-12-01T06:52:55.225Z,56.88
2018-12-01T06:55:23.695Z,57.42
2018-12-01T06:57:51.032Z,57.30
2018-12-01T07:00:20.610Z,56.93
2018-12-01T07:02:48.339Z,57.75
2018-12-01T07:05:16.357Z,58.51
2018-12-01T07:07:44.260Z,57.87
2018-12-01T07:10:12.775Z,57.50
2018-12-01T07:12:41.602Z,57.10
2018-12-01T07:15:11.219Z,56.76
2018-12-01T07:17:38.652Z,56.48
2018-12-01T07:20:07.246Z,56.62
2018-12-01T07:22:34.574Z,57.78
2018-12-01T07:25:02.071Z,56.76
2018-12-01T07:27:29.532Z,56.58
2018-12-01T07:29:58.198Z,57.38
2018-12-01T07:32:24.336Z,57.05
2018-12-01T07:34:51.714Z,58.30
2018-12-01T07:37:19.194Z,56.86
2018-12-01T07:39:48.642Z,57.65
2018-12-01T07:42:17.004Z,56.72
2018-12-01T07:44:45.020Z,57.28
2018-12-01T07:47:12.560Z,56.86
2018-12-01T07:49:39.985Z,56.59
2018-12-01T07:52:07.353Z,57.32
2018-12-01T07:54:34.807Z,55.95
2018-12-01T07:57:02.136Z,57.35
2018-12-01T07:59:30.682Z,56.98
2018-12-01T08:01:58.046Z,57.93
2018-12-01T08:04:25.479Z,56.92
2018-12-01T08:06:52.918Z,56.05
2018-12-01T08:09:20.303Z,56.13
2018-12-01T08:11:47.718Z,56.67
2018-12-01T08:14:15.151Z,57.18
2018-12-01T08:16:42.649Z,57.71
2018-12-01T08:19:10.022Z,56.37
2018-12-01T08:21:37.409Z,56.56
2018-12-01T08:24:04.945Z,56.09
2018-12-01T08:26:32.848Z,57.20
2018-12-01T08:29:00.288Z,57.32
2018-12-01T08:31:27.655Z,57.25
2018-12-01T08:33:54.981Z,56.06
2018-12-01T08:36:22.485Z,56.98
2018-12-01T08:38:49.806Z,56.11
2018-12-01T08:41:17.176Z,57.23
2018-12-01T08:43:45.163Z,57.24
2018-12-01T08:46:12.091Z,57.89
2018-12-01T08:48:39.535Z,57.29
2018-12-01T08:51:06.932Z,56.96
2018-12-01T08:53:34.265Z,58.52
2018-12-01T08:56:01.832Z,56.70
2018-12-01T08:58:29.434Z,56.70
2018-12-01T09:00:56.949Z,56.64
2018-12-01T09:03:24.384Z,56.26
2018-12-01T09:05:52.804Z,57.95
2018-12-01T09:08:20.237Z,57.21
2018-12-01T09:10:47.679Z,57.08
2018-12-01T09:13:15.120Z,56.83
2018-12-01T09:15:42.453Z,57.06
2018-12-01T09:18:10.017Z,56.63
2018-12-01T09:20:37.409Z,56.71
2018-12-01T09:23:05.257Z,56.42
2018-12-01T09:25:32.608Z,57.62
2018-12-01T09:28:00.573Z,57.80
2018-12-01T09:30:29.453Z,57.09
2018-12-01T09:32:57.461Z,56.10
2018-12-01T09:35:24.375Z,55.93
2018-12-01T09:37:52.047Z,55.63
2018-12-01T09:40:20.603Z,56.38
2018-12-01T09:42:48.252Z,57.65
2018-12-01T09:45:16.669Z,56.08
2018-12-01T09:47:45.686Z,55.50
2018-12-01T09:50:14.160Z,56.86
2018-12-01T09:52:42.295Z,56.72
2018-12-01T09:55:12.715Z,56.62
2018-12-01T09:57:41.036Z,56.75
2018-12-01T10:00:10.454Z,55.19
2018-12-01T10:02:38.328Z,55.94
2018-12-01T10:05:07.660Z,55.51
2018-12-01T10:07:35.178Z,55.65
2018-12-01T10:10:02.675Z,56.34
2018-12-01T10:12:30.119Z,55.41
2018-12-01T10:14:57.501Z,56.98
2018-12-01T10:17:24.901Z,56.44
2018-12-01T10:19:52.425Z,55.80
2018-12-01T10:22:19.766Z,54.29
2018-12-01T10:24:47.235Z,55.05
2018-12-01T10:27:15.939Z,54.84
2018-12-01T10:29:45.041Z,55.98
2018-12-01T10:32:12.447Z,55.70
2018-12-01T10:34:39.805Z,56.34
2018-12-01T10:37:07.196Z,55.69
2018-12-01T10:39:36.632Z,55.83
2018-12-01T10:42:04.192Z,55.58
2018-12-01T10:44:31.721Z,54.96
2018-12-01T10:46:59.304Z,55.29
2018-12-01T10:49:26.661Z,53.96
2018-12-01T10:51:54.033Z,55.01
2018-12-01T10:54:21.593Z,54.03
2018-12-01T10:56:49.011Z,54.88
2018-12-01T10:59:16.391Z,54.90
2018-12-01T11:02:55.606Z,54.50
2018-12-01T11:05:20.080Z,54.17
2018-12-01T11:07:47.458Z,55.00
2018-12-01T11:10:15.168Z,54.62
2018-12-01T11:12:43.019Z,54.13
2018-12-01T11:15:10.533Z,53.40
2018-12-01T11:17:37.966Z,52.89
2018-12-01T11:20:08.162Z,53.06
2018-12-01T11:22:35.698Z,54.05
2018-12-01T11:25:04.710Z,52.33
2018-12-01T11:27:32.315Z,52.83
2018-12-01T11:29:59.672Z,52.26
2018-12-01T11:32:27.050Z,52.98
2018-12-01T11:34:54.560Z,52.98
2018-12-01T11:37:21.874Z,54.39
2018-12-01T11:39:49.347Z,54.46
2018-12-01T11:42:16.704Z,53.80
2018-12-01T11:44:44.905Z,53.68
2018-12-01T11:47:12.302Z,54.96
2018-12-01T11:49:40.333Z,54.28
2018-12-01T11:52:07.776Z,53.49
2018-12-01T11:54:35.226Z,53.69
2018-12-01T11:57:02.645Z,52.30
2018-12-01T11:59:30.128Z,53.57
2018-12-01T12:02:00.348Z,54.17
2018-12-01T12:04:25.078Z,52.42
2018-12-01T12:06:52.487Z,52.70
2018-12-01T12:09:20.873Z,52.56
2018-12-01T12:11:48.462Z,52.76
2018-12-01T12:14:15.915Z,51.80
2018-12-01T12:16:43.286Z,52.64
2018-12-01T12:19:10.685Z,51.53
2018-12-01T12:21:38.061Z,51.17
2018-12-01T12:24:05.614Z,51.64
2018-12-01T12:26:33.173Z,51.44
2018-12-01T12:29:00.515Z,52.13
2018-12-01T12:31:27.957Z,52.22
2018-12-01T12:33:55.293Z,52.38
2018-12-01T12:36:22.700Z,50.39
2018-12-01T12:38:50.140Z,52.19
2018-12-01T12:41:17.596Z,50.96
2018-12-01T12:43:44.977Z,51.77
2018-12-01T12:46:12.375Z,50.03
2018-12-01T12:48:39.705Z,49.79
2018-12-01T12:51:07.511Z,50.12
2018-12-01T12:53:34.878Z,50.33
2018-12-01T12:56:02.370Z,50.33
2018-12-01T12:58:29.882Z,51.33
2018-12-01T13:00:57.336Z,49.33
2018-12-01T13:03:24.804Z,49.98
2018-12-01T13:05:52.302Z,51.31
2018-12-01T13:08:19.922Z,50.25
2018-12-01T13:10:47.542Z,49.42
2018-12-01T13:13:14.940Z,49.50
2018-12-01T13:15:42.284Z,49.82
2018-12-01T13:18:11.192Z,50.19
2018-12-01T13:20:38.936Z,50.21
2018-12-01T13:23:07.176Z,50.69
2018-12-01T13:25:34.943Z,50.55
2018-12-01T13:28:09.764Z,50.06
2018-12-01T13:30:40.450Z,49.46
2018-12-01T13:33:07.884Z,51.24
2018-12-01T13:35:35.387Z,49.80
2018-12-01T13:38:02.847Z,50.68
2018-12-01T13:40:31.254Z,50.36
2018-12-01T13:42:58.689Z,50.37
2018-12-01T13:45:26.179Z,50.92
2018-12-01T13:47:53.649Z,49.80
2018-12-01T13:50:21.361Z,50.12
2018-12-01T13:52:54.150Z,51.00
2018-12-01T13:55:21.534Z,50.16
2018-12-01T13:57:48.961Z,50.64
2018-12-01T14:00:17.681Z,50.06
2018-12-01T14:02:45.285Z,50.83
2018-12-01T14:05:13.015Z,50.07
2018-12-01T14:07:40.505Z,50.58
2018-12-01T14:10:16.239Z,50.00
2018-12-01T14:12:45.164Z,50.11
2018-12-01T14:15:17.421Z,50.61
2018-12-01T14:17:44.920Z,51.44
2018-12-01T14:20:13.520Z,51.80
2018-12-01T14:22:41.146Z,50.47
2018-12-01T14:25:09.692Z,50.56
2018-12-01T14:27:37.640Z,51.02
2018-12-01T14:30:11.377Z,50.17
2018-12-01T14:32:38.833Z,50.92
2018-12-01T14:35:10.546Z,50.49
2018-12-01T14:37:37.986Z,51.55
2018-12-01T14:40:07.954Z,51.13
2018-12-01T14:42:35.344Z,53.16
2018-12-01T14:45:02.774Z,52.13
2018-12-01T14:47:30.164Z,51.89
2018-12-01T14:49:57.520Z,51.55
2018-12-01T14:52:24.904Z,51.50
2018-12-01T14:54:52.258Z,52.87
2018-12-01T14:57:19.628Z,51.77
2018-12-01T14:59:47.096Z,52.38
2018-12-01T15:02:14.472Z,52.43
2018-12-01T15:04:41.850Z,51.86
2018-12-01T15:07:09.273Z,52.07
2018-12-01T15:09:37.424Z,51.49
2018-12-01T15:12:06.301Z,52.15
2018-12-01T15:14:33.792Z,51.24
2018-12-01T15:17:01.150Z,51.42
2018-12-01T15:19:28.723Z,51.53
2018-12-01T15:21:56.083Z,51.85
2018-12-01T15:24:23.507Z,52.64
2018-12-01T15:26:50.968Z,52.32
2018-12-01T15:29:18.466Z,53.16
2018-12-01T15:31:46.086Z,53.10
2018-12-01T15:34:13.444Z,53.16
2018-12-01T15:36:40.904Z,52.14
2018-12-01T15:39:10.499Z,52.69
2018-12-01T15:41:37.982Z,52.76
2018-12-01T15:44:06.611Z,52.29
2018-12-01T15:46:34.212Z,52.59
2018-12-01T15:49:03.172Z,53.94
2018-12-01T15:51:29.681Z,52.93
2018-12-01T15:53:57.048Z,53.23
2018-12-01T15:56:24.555Z,53.07
2018-12-01T15:58:52.175Z,53.16
2018-12-01T16:01:19.696Z,53.34
2018-12-01T16:03:47.415Z,54.33
2018-12-01T16:06:14.818Z,53.35
2018-12-01T16:08:42.249Z,53.73
2018-12-01T16:11:09.668Z,53.87
2018-12-01T16:13:37.104Z,53.03
2018-12-01T16:16:07.359Z,53.04
2018-12-01T16:18:35.421Z,53.34
2018-12-01T16:21:02.740Z,54.17
2018-12-01T16:23:30.233Z,54.11
2018-12-01T16:25:57.699Z,53.50
2018-12-01T16:28:25.152Z,53.85
2018-12-01T16:30:52.533Z,53.11
2018-12-01T16:33:20.613Z,53.16
2018-12-01T16:35:49.761Z,53.86
2018-12-01T16:38:19.234Z,54.10
2018-12-01T16:40:56.249Z,53.48
2018-12-01T16:43:24.383Z,53.54
2018-12-01T16:45:52.359Z,53.44
2018-12-01T16:48:20.176Z,52.79
2018-12-01T16:50:47.521Z,53.71
2018-12-01T16:53:16.437Z,53.55
2018-12-01T16:55:44.104Z,53.96
2018-12-01T16:58:11.591Z,54.26
2018-12-01T17:00:39.218Z,53.51
2018-12-01T17:03:08.479Z,53.62
2018-12-01T17:05:37.474Z,52.97
2018-12-01T17:08:05.186Z,52.49
2018-12-01T17:10:32.696Z,53.06
2018-12-01T17:13:00.399Z,53.18
2018-12-01T17:15:27.794Z,53.16
2018-12-01T17:17:55.278Z,52.85
2018-12-01T17:20:22.642Z,52.42
2018-12-01T17:22:54.834Z,52.99
2018-12-01T17:25:22.278Z,52.80
2018-12-01T17:27:50.517Z,53.10
2018-12-01T17:30:19.387Z,52.82
2018-12-01T17:32:47.874Z,53.37
2018-12-01T17:35:17.454Z,52.25
2018-12-01T17:37:46.407Z,52.82
2018-12-01T17:40:17.463Z,52.40
2018-12-01T17:42:47.136Z,52.45
2018-12-01T17:45:14.545Z,53.91
2018-12-01T17:47:41.927Z,52.29
2018-12-01T17:50:15.020Z,52.57
2018-12-01T17:52:49.172Z,52.71
2018-12-01T17:55:16.923Z,53.12
2018-12-01T17:57:45.114Z,52.30
2018-12-01T18:00:16.015Z,51.96
2018-12-01T18:02:42.514Z,51.51
2018-12-01T18:05:12.768Z,51.47
2018-12-01T18:07:40.244Z,51.94
2018-12-01T18:10:10.378Z,52.15
2018-12-01T18:12:37.761Z,52.00
2018-12-01T18:15:09.037Z,52.50
2018-12-01T18:17:36.468Z,53.11
2018-12-01T18:20:04.726Z,53.11
2018-12-01T18:22:32.902Z,52.20
2018-12-01T18:25:00.455Z,51.77
2018-12-01T18:27:27.800Z,51.48
2018-12-01T18:29:55.389Z,52.05
2018-12-01T18:32:22.767Z,52.33
2018-12-01T18:34:50.139Z,51.43
2018-12-01T18:37:18.507Z,51.54
2018-12-01T18:39:45.888Z,52.01
2018-12-01T18:42:13.299Z,51.59
2018-12-01T18:44:44.038Z,51.58
2018-12-01T18:47:11.617Z,51.68
2018-12-01T18:49:39.784Z,51.72
2018-12-01T18:52:07.169Z,52.00
2018-12-01T18:54:34.611Z,52.59
2018-12-01T18:57:02.046Z,52.80
2018-12-01T18:59:29.438Z,52.07
2018-12-01T19:01:56.802Z,51.93
2018-12-01T19:04:24.197Z,51.83
2018-12-01T19:06:51.687Z,52.21
2018-12-01T19:09:19.083Z,51.48
2018-12-01T19:11:46.526Z,51.88
2018-12-01T19:14:13.978Z,51.96
2018-12-01T19:16:41.392Z,51.91
2018-12-01T19:19:08.844Z,52.67
2018-12-01T19:21:36.215Z,52.21
2018-12-01T19:24:03.731Z,51.55
2018-12-01T19:26:31.165Z,52.66
2018-12-01T19:28:58.531Z,52.07
2018-12-01T19:31:25.960Z,52.42
2018-12-01T19:33:53.373Z,52.13
2018-12-01T19:36:20.800Z,52.00
2018-12-01T19:38:48.201Z,52.15
2018-12-01T19:41:15.674Z,54.11
2018-12-01T19:43:43.066Z,52.41
2018-12-01T19:46:10.453Z,52.87
2018-12-01T19:48:37.827Z,52.28
2018-12-01T19:51:05.585Z,52.12
2018-12-01T19:53:32.992Z,52.46
2018-12-01T19:56:00.363Z,52.94
2018-12-01T19:58:28.799Z,52.35
2018-12-01T20:00:57.316Z,53.88
2018-12-01T20:03:25.890Z,53.18
2018-12-01T20:05:53.283Z,52.22
2018-12-01T20:08:21.110Z,51.82
2018-12-01T20:10:52.771Z,52.66
2018-12-01T20:13:27.764Z,52.22
2018-12-01T20:16:00.315Z,51.54
2018-12-01T20:18:28.345Z,51.01
2018-12-01T20:20:55.775Z,51.85
2018-12-01T20:23:23.164Z,51.29
2018-12-01T20:25:51.105Z,51.73
2018-12-01T20:28:18.745Z,51.54
2018-12-01T20:30:46.816Z,52.14
2018-12-01T20:33:14.534Z,51.58
2018-12-01T20:35:45.865Z,51.77
2018-12-01T20:38:21.115Z,51.38
2018-12-01T20:40:48.545Z,51.62
2018-12-01T20:43:16.016Z,52.00
2018-12-01T20:45:43.507Z,51.63
2018-12-01T20:48:12.612Z,51.97
2018-12-01T20:50:40.141Z,51.72
2018-12-01T20:53:08.010Z,51.33
2018-12-01T20:55:36.049Z,51.35
2018-12-01T20:58:05.878Z,51.78
2018-12-01T21:00:33.454Z,52.56
2018-12-01T21:03:00.866Z,52.84
2018-12-01T21:05:28.421Z,52.13
2018-12-01T21:07:55.813Z,52.80
2018-12-01T21:10:30.139Z,52.90
2018-12-01T21:12:59.074Z,53.69
2018-12-01T21:15:26.473Z,53.69
2018-12-01T21:17:53.945Z,53.35
2018-12-01T21:20:21.306Z,53.92
2018-12-01T21:22:49.919Z,53.70
2018-12-01T21:32:07.998Z,52.54
2018-12-01T21:34:35.470Z,53.17
2018-12-01T21:37:03.096Z,53.46
2018-12-01T21:39:30.429Z,53.26
2018-12-01T21:41:57.809Z,53.03
2018-12-01T21:44:25.192Z,53.10
2018-12-01T21:46:52.576Z,52.02
2018-12-01T21:49:19.926Z,52.67
2018-12-01T21:51:47.387Z,53.35
2018-12-01T21:54:14.917Z,52.13
2018-12-01T21:56:42.379Z,52.32
2018-12-01T21:59:09.795Z,52.48
2018-12-01T22:01:37.242Z,53.30
2018-12-01T22:04:04.978Z,52.63
2018-12-01T22:06:32.507Z,52.72
2018-12-01T22:08:59.802Z,52.37
2018-12-01T22:11:27.149Z,51.93
2018-12-01T22:13:54.430Z,52.28
2018-12-01T22:16:21.731Z,51.65
2018-12-01T22:18:48.958Z,51.98
2018-12-01T22:21:16.231Z,51.87
2018-12-01T22:23:43.552Z,51.37
2018-12-01T22:26:10.853Z,52.69
2018-12-01T22:28:38.162Z,51.41
2018-12-01T22:31:05.588Z,51.73
2018-12-01T22:33:32.954Z,52.93
2018-12-01T22:36:00.293Z,53.86
2018-12-01T22:38:27.581Z,54.60
2018-12-01T22:40:54.962Z,53.90
2018-12-01T22:43:22.909Z,54.12
2018-12-01T22:45:50.227Z,54.22
2018-12-01T22:48:19.210Z,54.26
2018-12-01T22:50:48.133Z,53.66
2018-12-01T22:53:15.452Z,54.61
2018-12-01T22:55:43.379Z,53.85
2018-12-01T22:58:13.333Z,54.27
2018-12-01T23:00:48.411Z,54.36
2018-12-01T23:03:15.768Z,53.77
2018-12-01T23:05:43.227Z,52.99
2018-12-01T23:08:12.241Z,51.91
2018-12-01T23:10:39.556Z,53.08
2018-12-01T23:13:07.288Z,52.54
2018-12-01T23:15:34.770Z,52.91
2018-12-01T23:18:02.114Z,53.32
2018-12-01T23:20:29.414Z,53.18
2018-12-01T23:22:56.854Z,52.62
2018-12-01T23:25:24.100Z,53.17
2018-12-01T23:27:51.520Z,52.48
2018-12-01T23:30:24.024Z,52.20
2018-12-01T23:32:55.764Z,51.63
2018-12-01T23:35:23.170Z,52.34
2018-12-01T23:37:50.570Z,52.78
2018-12-01T23:40:17.997Z,51.53
2018-12-01T23:42:45.351Z,52.22
2018-12-01T23:45:16.558Z,51.76
2018-12-01T23:47:44.607Z,51.96
2018-12-01T23:50:18.454Z,51.21
2018-12-01T23:52:47.269Z,51.65
2018-12-01T23:55:14.877Z,51.82
2018-12-01T23:57:42.514Z,51.85
